Time;durP1;ratioP1;P1;durP2;ratioP2;P2;SDS_P1;SDS_P2;PMS_P1;PMS_P2;Temp;Humidity;BMP_temperature;BMP_pressure;BME280_temperature;BME280_humidity;BME280_pressure;Samples;Min_cycle;Max_cycle;Signal;HPM_P1;HPM_P2
2022/01/04 00:00:21;;;;;;;0.00;0.00;;;;;;;;;;1715520;28;20541;-71
2022/01/04 00:01:13;;;;;;;0.00;0.00;;;;;;;;;;1714442;28;20225;-70
2022/01/04 00:02:05;;;;;;;0.00;0.00;;;;;;;;;;1718193;28;20201;-69
2022/01/04 00:02:56;;;;;;;0.00;0.00;;;;;;;;;;1718346;28;20645;-69
2022/01/04 00:03:48;;;;;;;0.00;0.00;;;;;;;;;;1717656;28;20227;-70
2022/01/04 00:04:40;;;;;;;0.00;0.00;;;;;;;;;;1718759;28;20223;-70
2022/01/04 00:05:32;;;;;;;0.00;0.00;;;;;;;;;;1717850;28;20689;-71
2022/01/04 00:06:25;;;;;;;0.00;0.00;;;;;;;;;;1718630;28;20636;-71
2022/01/04 00:07:17;;;;;;;0.00;0.00;;;;;;;;;;1718467;28;20691;-71
2022/01/04 00:08:11;;;;;;;0.00;0.00;;;;;;;;;;1718176;28;20209;-70
2022/01/04 00:09:04;;;;;;;0.00;0.00;;;;;;;;;;1718368;28;20594;-70
2022/01/04 00:09:56;;;;;;;0.00;0.00;;;;;;;;;;1717262;28;20243;-70
2022/01/04 00:10:49;;;;;;;0.00;0.00;;;;;;;;;;1718314;28;20670;-70
2022/01/04 00:11:58;;;;;;;0.00;0.00;;;;;;;;;;1718175;28;20667;-70
2022/01/04 00:14:00;;;;;;;0.00;0.00;;;;;;;;;;1718537;28;20208;-69
2022/01/04 00:14:51;;;;;;;0.00;0.00;;;;;;;;;;1718145;28;20239;-69
2022/01/04 00:15:44;;;;;;;0.00;0.00;;;;;;;;;;1717359;28;20688;-69
2022/01/04 00:16:35;;;;;;;0.00;0.00;;;;;;;;;;1718114;28;20912;-69
2022/01/04 00:17:28;;;;;;;0.00;0.00;;;;;;;;;;1718632;28;20201;-69
2022/01/04 00:18:20;;;;;;;0.00;0.00;;;;;;;;;;1718256;28;20209;-70
2022/01/04 00:19:12;;;;;;;0.00;0.00;;;;;;;;;;1718523;28;20654;-70
2022/01/04 00:20:04;;;;;;;0.00;0.00;;;;;;;;;;1717772;28;20209;-69
2022/01/04 00:20:56;;;;;;;0.00;0.00;;;;;;;;;;1718501;28;20348;-70
2022/01/04 00:21:49;;;;;;;0.00;0.00;;;;;;;;;;1717435;28;20235;-70
2022/01/04 00:22:41;;;;;;;0.00;0.00;;;;;;;;;;1718394;28;20208;-71
2022/01/04 00:23:34;;;;;;;0.00;0.00;;;;;;;;;;1718195;28;20224;-70
2022/01/04 00:24:25;;;;;;;0.00;0.00;;;;;;;;;;1716812;28;20204;-71
2022/01/04 00:25:17;;;;;;;0.00;0.00;;;;;;;;;;1718287;28;20232;-71
2022/01/04 00:26:08;;;;;;;0.00;0.00;;;;;;;;;;1717996;28;20307;-70
2022/01/04 00:27:01;;;;;;;0.00;0.00;;;;;;;;;;1718004;28;20224;-70
2022/01/04 00:27:52;;;;;;;0.00;0.00;;;;;;;;;;1718072;28;20542;-70
2022/01/04 00:28:44;;;;;;;0.00;0.00;;;;;;;;;;1717634;28;20646;-70
2022/01/04 00:29:35;;;;;;;0.00;0.00;;;;;;;;;;1718472;28;20205;-69
2022/01/04 00:30:28;;;;;;;0.00;0.00;;;;;;;;;;1716871;28;20220;-71
2022/01/04 00:31:20;;;;;;;0.00;0.00;;;;;;;;;;1725385;28;20642;-70
2022/01/04 00:32:12;;;;;;;0.00;0.00;;;;;;;;;;1725007;28;20639;-70
2022/01/04 00:33:03;;;;;;;0.00;0.00;;;;;;;;;;1725202;28;20208;-70
2022/01/04 00:33:55;;;;;;;0.00;0.00;;;;;;;;;;1723911;28;20541;-70
2022/01/04 00:34:46;;;;;;;0.00;0.00;;;;;;;;;;1724344;28;20200;-70
2022/01/04 00:35:39;;;;;;;0.00;0.00;;;;;;;;;;1722080;28;20196;-70
2022/01/04 00:36:30;;;;;;;0.00;0.00;;;;;;;;;;1718188;28;20570;-70
2022/01/04 00:37:23;;;;;;;0.00;0.00;;;;;;;;;;1722592;28;20605;-70
2022/01/04 00:38:15;;;;;;;0.00;0.00;;;;;;;;;;1722243;28;20217;-70
2022/01/04 00:39:07;;;;;;;0.00;0.00;;;;;;;;;;1723061;28;20646;-70
2022/01/04 00:39:59;;;;;;;0.00;0.00;;;;;;;;;;1721155;28;20217;-70
2022/01/04 00:40:51;;;;;;;0.00;0.00;;;;;;;;;;1715883;28;20232;-70
2022/01/04 00:41:42;;;;;;;0.00;0.00;;;;;;;;;;1717874;28;20543;-70
2022/01/04 00:42:34;;;;;;;0.00;0.00;;;;;;;;;;1718753;28;20201;-70
2022/01/04 00:43:26;;;;;;;0.00;0.00;;;;;;;;;;1718075;28;20571;-70
2022/01/04 00:44:18;;;;;;;0.00;0.00;;;;;;;;;;1718903;28;20300;-70
2022/01/04 00:45:12;;;;;;;0.00;0.00;;;;;;;;;;1718152;28;20220;-70
2022/01/04 00:46:04;;;;;;;0.00;0.00;;;;;;;;;;1717998;28;20287;-71
2022/01/04 00:46:56;;;;;;;0.00;0.00;;;;;;;;;;1716925;28;20216;-71
2022/01/04 00:49:09;;;;;;;0.00;0.00;;;;;;;;;;1718867;28;20639;-71
2022/01/04 00:49:10;;;;;;;0.00;0.00;;;;;;;;;;1718486;28;20650;-71
2022/01/04 00:50:01;;;;;;;0.00;0.00;;;;;;;;;;1718135;28;20627;-71
2022/01/04 00:50:54;;;;;;;0.00;0.00;;;;;;;;;;1718952;28;20343;-70
2022/01/04 00:51:47;;;;;;;0.00;0.00;;;;;;;;;;1718367;28;20209;-70
2022/01/04 00:52:40;;;;;;;0.00;0.00;;;;;;;;;;1718005;28;20201;-70
2022/01/04 00:53:31;;;;;;;0.00;0.00;;;;;;;;;;1717741;28;20279;-70
2022/01/04 00:54:24;;;;;;;0.00;0.00;;;;;;;;;;1718969;28;20201;-70
2022/01/04 00:55:15;;;;;;;0.00;0.00;;;;;;;;;;1718342;28;20220;-70
2022/01/04 00:56:07;;;;;;;0.00;0.00;;;;;;;;;;1718313;28;20225;-70
2022/01/04 00:56:58;;;;;;;0.00;0.00;;;;;;;;;;1718213;28;20208;-70
2022/01/04 00:57:50;;;;;;;0.00;0.00;;;;;;;;;;1719320;28;20208;-70
2022/01/04 00:58:41;;;;;;;0.00;0.00;;;;;;;;;;1719189;28;20558;-70
2022/01/04 00:59:34;;;;;;;0.00;0.00;;;;;;;;;;1719699;28;20203;-70
2022/01/04 01:00:25;;;;;;;0.00;0.00;;;;;;;;;;1718080;28;20212;-69
2022/01/04 01:01:17;;;;;;;0.00;0.00;;;;;;;;;;1716438;28;20233;-70
2022/01/04 01:02:09;;;;;;;0.00;0.00;;;;;;;;;;1719922;28;20556;-70
2022/01/04 01:03:01;;;;;;;0.00;0.00;;;;;;;;;;1720462;28;20745;-70
2022/01/04 01:03:52;;;;;;;0.00;0.00;;;;;;;;;;1718507;28;20235;-70
2022/01/04 01:04:45;;;;;;;0.00;0.00;;;;;;;;;;1719710;28;20200;-70
2022/01/04 01:05:36;;;;;;;0.00;0.00;;;;;;;;;;1718507;28;20224;-70
2022/01/04 01:06:28;;;;;;;0.00;0.00;;;;;;;;;;1720272;28;20666;-70
2022/01/04 01:07:19;;;;;;;0.00;0.00;;;;;;;;;;1720113;28;20232;-71
2022/01/04 01:08:13;;;;;;;0.00;0.00;;;;;;;;;;1719500;28;20205;-70
2022/01/04 01:09:04;;;;;;;0.00;0.00;;;;;;;;;;1719998;28;20363;-70
2022/01/04 01:10:18;;;;;;;0.00;0.00;;;;;;;;;;1718846;28;20205;-71
2022/01/04 01:11:10;;;;;;;0.00;0.00;;;;;;;;;;1724509;28;20697;-70
2022/01/04 01:12:02;;;;;;;0.00;0.00;;;;;;;;;;1725521;28;20231;-70
2022/01/04 01:12:53;;;;;;;0.00;0.00;;;;;;;;;;1727013;28;20204;-70
2022/01/04 01:13:46;;;;;;;0.00;0.00;;;;;;;;;;1725914;28;20578;-70
2022/01/04 01:14:37;;;;;;;0.00;0.00;;;;;;;;;;1726325;28;20212;-70
2022/01/04 01:15:29;;;;;;;0.00;0.00;;;;;;;;;;1725465;28;20197;-70
2022/01/04 01:16:21;;;;;;;0.00;0.00;;;;;;;;;;1727076;28;20215;-70
2022/01/04 01:17:13;;;;;;;0.00;0.00;;;;;;;;;;1726021;28;20382;-70
2022/01/04 01:18:05;;;;;;;0.00;0.00;;;;;;;;;;1725657;28;20355;-70
2022/01/04 01:18:57;;;;;;;0.00;0.00;;;;;;;;;;1726423;28;20208;-70
2022/01/04 01:19:48;;;;;;;0.00;0.00;;;;;;;;;;1725874;28;20208;-70
2022/01/04 01:20:40;;;;;;;0.00;0.00;;;;;;;;;;1722216;28;20693;-71
2022/01/04 01:21:32;;;;;;;0.00;0.00;;;;;;;;;;1721957;28;20264;-71
2022/01/04 01:22:24;;;;;;;0.00;0.00;;;;;;;;;;1722809;28;20235;-71
2022/01/04 01:23:17;;;;;;;0.00;0.00;;;;;;;;;;1721823;28;20209;-70
2022/01/04 01:24:09;;;;;;;0.00;0.00;;;;;;;;;;1721288;28;20565;-70
2022/01/04 01:25:00;;;;;;;0.00;0.00;;;;;;;;;;1722143;28;21517;-70
2022/01/04 01:25:53;;;;;;;0.00;0.00;;;;;;;;;;1726046;28;20290;-70
2022/01/04 01:26:45;;;;;;;0.00;0.00;;;;;;;;;;1725426;28;20208;-70
2022/01/04 01:27:37;;;;;;;0.00;0.00;;;;;;;;;;1720887;28;20232;-69
2022/01/04 01:28:29;;;;;;;0.00;0.00;;;;;;;;;;1723665;28;20559;-70
2022/01/04 01:29:21;;;;;;;0.00;0.00;;;;;;;;;;1719872;28;20205;-70
2022/01/04 01:30:13;;;;;;;0.00;0.00;;;;;;;;;;1723442;28;20546;-70
2022/01/04 01:31:05;;;;;;;0.00;0.00;;;;;;;;;;1718840;28;20241;-71
2022/01/04 01:31:56;;;;;;;0.00;0.00;;;;;;;;;;1723964;28;20215;-70
2022/01/04 01:32:51;;;;;;;0.00;0.00;;;;;;;;;;1719904;28;20768;-71
2022/01/04 01:33:43;;;;;;;0.00;0.00;;;;;;;;;;1723565;28;20208;-71
2022/01/04 01:34:34;;;;;;;0.00;0.00;;;;;;;;;;1726513;28;20630;-71
2022/01/04 01:35:26;;;;;;;0.00;0.00;;;;;;;;;;1723660;28;20541;-71
2022/01/04 01:36:19;;;;;;;0.00;0.00;;;;;;;;;;1719710;28;20514;-70
2022/01/04 01:37:10;;;;;;;0.00;0.00;;;;;;;;;;1725361;28;20211;-70
2022/01/04 01:38:02;;;;;;;0.00;0.00;;;;;;;;;;1725819;28;20204;-71
2022/01/04 01:38:55;;;;;;;0.00;0.00;;;;;;;;;;1725668;28;20208;-71
2022/01/04 01:39:47;;;;;;;0.00;0.00;;;;;;;;;;1725713;28;20228;-71
2022/01/04 01:40:40;;;;;;;0.00;0.00;;;;;;;;;;1722367;28;20205;-71
2022/01/04 01:41:31;;;;;;;0.00;0.00;;;;;;;;;;1721114;28;20223;-71
2022/01/04 01:42:24;;;;;;;0.00;0.00;;;;;;;;;;1721758;28;20201;-70
2022/01/04 01:43:15;;;;;;;0.00;0.00;;;;;;;;;;1721331;28;20212;-70
2022/01/04 01:44:07;;;;;;;0.00;0.00;;;;;;;;;;1721903;28;20665;-71
2022/01/04 01:44:59;;;;;;;0.00;0.00;;;;;;;;;;1722138;28;20628;-73
2022/01/04 01:45:53;;;;;;;0.00;0.00;;;;;;;;;;1720910;28;20243;-73
2022/01/04 01:46:44;;;;;;;0.00;0.00;;;;;;;;;;1722857;28;20208;-73
2022/01/04 01:47:39;;;;;;;0.00;0.00;;;;;;;;;;1720295;28;20205;-73
2022/01/04 01:48:31;;;;;;;0.00;0.00;;;;;;;;;;1722592;28;20240;-73
2022/01/04 01:49:23;;;;;;;0.00;0.00;;;;;;;;;;1719875;28;20201;-73
2022/01/04 01:50:14;;;;;;;0.00;0.00;;;;;;;;;;1724253;28;20223;-73
2022/01/04 01:51:06;;;;;;;0.00;0.00;;;;;;;;;;1718848;28;20236;-73
2022/01/04 01:51:58;;;;;;;0.00;0.00;;;;;;;;;;1724241;28;20204;-73
2022/01/04 01:52:51;;;;;;;0.00;0.00;;;;;;;;;;1726517;28;20239;-73
2022/01/04 01:53:43;;;;;;;0.00;0.00;;;;;;;;;;1725174;28;20205;-73
2022/01/04 01:54:36;;;;;;;0.00;0.00;;;;;;;;;;1725020;28;20200;-73
2022/01/04 01:55:28;;;;;;;0.00;0.00;;;;;;;;;;1724696;28;20201;-72
2022/01/04 01:56:19;;;;;;;0.00;0.00;;;;;;;;;;1725878;28;20196;-72
2022/01/04 01:57:12;;;;;;;0.00;0.00;;;;;;;;;;1725546;28;20836;-72
2022/01/04 01:58:03;;;;;;;0.00;0.00;;;;;;;;;;1725766;28;20208;-72
2022/01/04 01:58:55;;;;;;;0.00;0.00;;;;;;;;;;1725265;28;20204;-72
2022/01/04 01:59:46;;;;;;;0.00;0.00;;;;;;;;;;1725079;28;20200;-73
2022/01/04 02:00:38;;;;;;;0.00;0.00;;;;;;;;;;1720326;28;20222;-72
2022/01/04 02:01:30;;;;;;;0.00;0.00;;;;;;;;;;1722575;28;20630;-72
2022/01/04 02:02:22;;;;;;;0.00;0.00;;;;;;;;;;1726084;28;20311;-73
2022/01/04 02:03:13;;;;;;;0.00;0.00;;;;;;;;;;1725666;28;20208;-73
2022/01/04 02:04:05;;;;;;;0.00;0.00;;;;;;;;;;1725697;28;20704;-72
2022/01/04 02:04:56;;;;;;;0.00;0.00;;;;;;;;;;1725692;28;20631;-72
2022/01/04 02:05:49;;;;;;;0.00;0.00;;;;;;;;;;1725123;28;20240;-70
2022/01/04 02:06:41;;;;;;;0.00;0.00;;;;;;;;;;1724671;28;20232;-70
2022/01/04 02:07:34;;;;;;;0.00;0.00;;;;;;;;;;1725882;28;20484;-70
2022/01/04 02:08:25;;;;;;;0.00;0.00;;;;;;;;;;1725578;28;20673;-70
2022/01/04 02:09:18;;;;;;;0.00;0.00;;;;;;;;;;1725202;28;20204;-70
2022/01/04 02:10:14;;;;;;;0.00;0.00;;;;;;;;;;1725225;28;20305;-70
2022/01/04 02:11:06;;;;;;;0.00;0.00;;;;;;;;;;1718241;28;20241;-70
2022/01/04 02:11:58;;;;;;;0.00;0.00;;;;;;;;;;1724290;28;20223;-70
2022/01/04 02:12:50;;;;;;;0.00;0.00;;;;;;;;;;1718605;28;20208;-70
2022/01/04 02:13:41;;;;;;;0.00;0.00;;;;;;;;;;1724678;28;20216;-70
2022/01/04 02:14:33;;;;;;;0.00;0.00;;;;;;;;;;1726106;28;20239;-70
2022/01/04 02:15:25;;;;;;;0.00;0.00;;;;;;;;;;1725044;28;20201;-72
2022/01/04 02:16:19;;;;;;;0.00;0.00;;;;;;;;;;1725838;28;20204;-71
2022/01/04 02:17:11;;;;;;;0.00;0.00;;;;;;;;;;1724813;28;20212;-71
2022/01/04 02:18:03;;;;;;;0.00;0.00;;;;;;;;;;1725762;28;20204;-71
2022/01/04 02:18:59;;;;;;;0.00;0.00;;;;;;;;;;1724508;28;20589;-70
2022/01/04 02:19:52;;;;;;;0.00;0.00;;;;;;;;;;1725276;28;20197;-70
2022/01/04 02:20:44;;;;;;;0.00;0.00;;;;;;;;;;1724521;28;20268;-70
2022/01/04 02:21:36;;;;;;;0.00;0.00;;;;;;;;;;1725292;28;20500;-70
2022/01/04 02:22:28;;;;;;;0.00;0.00;;;;;;;;;;1725615;28;20204;-70
2022/01/04 02:23:21;;;;;;;0.00;0.00;;;;;;;;;;1725530;28;20208;-70
2022/01/04 02:24:12;;;;;;;0.00;0.00;;;;;;;;;;1721201;28;20520;-70
2022/01/04 02:25:06;;;;;;;0.00;0.00;;;;;;;;;;1721767;28;20267;-70
2022/01/04 02:25:58;;;;;;;0.00;0.00;;;;;;;;;;1719776;28;20241;-70
2022/01/04 02:26:51;;;;;;;0.00;0.00;;;;;;;;;;1723066;28;20550;-71
2022/01/04 02:27:42;;;;;;;0.00;0.00;;;;;;;;;;1719506;28;20547;-70
2022/01/04 02:28:34;;;;;;;0.00;0.00;;;;;;;;;;1723809;28;20440;-70
2022/01/04 02:29:26;;;;;;;0.00;0.00;;;;;;;;;;1719210;28;20205;-70
2022/01/04 02:30:19;;;;;;;0.00;0.00;;;;;;;;;;1723959;28;20487;-70
2022/01/04 02:31:10;;;;;;;0.00;0.00;;;;;;;;;;1724779;28;20228;-70
2022/01/04 02:32:03;;;;;;;0.00;0.00;;;;;;;;;;1724894;28;20210;-70
2022/01/04 02:32:55;;;;;;;0.00;0.00;;;;;;;;;;1725935;28;20652;-70
2022/01/04 02:33:46;;;;;;;0.00;0.00;;;;;;;;;;1723719;28;20694;-70
2022/01/04 02:34:39;;;;;;;0.00;0.00;;;;;;;;;;1726102;28;20626;-70
2022/01/04 02:35:32;;;;;;;0.00;0.00;;;;;;;;;;1724070;28;20246;-70
2022/01/04 02:36:24;;;;;;;0.00;0.00;;;;;;;;;;1725927;28;20242;-71
2022/01/04 02:37:18;;;;;;;0.00;0.00;;;;;;;;;;1724697;28;20208;-70
2022/01/04 02:38:10;;;;;;;0.00;0.00;;;;;;;;;;1725066;28;20581;-71
2022/01/04 02:39:01;;;;;;;0.00;0.00;;;;;;;;;;1725395;28;20208;-70
2022/01/04 02:39:54;;;;;;;0.00;0.00;;;;;;;;;;1724880;28;20274;-71
2022/01/04 02:40:45;;;;;;;0.00;0.00;;;;;;;;;;1721430;28;20252;-70
2022/01/04 02:41:37;;;;;;;0.00;0.00;;;;;;;;;;1721344;28;20700;-70
2022/01/04 02:42:28;;;;;;;0.00;0.00;;;;;;;;;;1721553;28;20205;-70
2022/01/04 02:43:21;;;;;;;0.00;0.00;;;;;;;;;;1721416;28;20199;-70
2022/01/04 02:44:12;;;;;;;0.00;0.00;;;;;;;;;;1720467;28;20270;-70
2022/01/04 02:45:05;;;;;;;0.00;0.00;;;;;;;;;;1722043;28;20228;-71
2022/01/04 02:45:56;;;;;;;0.00;0.00;;;;;;;;;;1719939;28;20236;-70
2022/01/04 02:46:48;;;;;;;0.00;0.00;;;;;;;;;;1722769;28;20771;-70
2022/01/04 02:47:40;;;;;;;0.00;0.00;;;;;;;;;;1719925;28;20613;-70
2022/01/04 02:48:32;;;;;;;0.00;0.00;;;;;;;;;;1723263;28;20232;-70
2022/01/04 02:49:23;;;;;;;0.00;0.00;;;;;;;;;;1719176;28;20201;-70
2022/01/04 02:50:15;;;;;;;0.00;0.00;;;;;;;;;;1722953;28;20540;-70
2022/01/04 02:51:08;;;;;;;0.00;0.00;;;;;;;;;;1718243;28;20237;-70
2022/01/04 02:52:00;;;;;;;0.00;0.00;;;;;;;;;;1723872;28;20504;-70
2022/01/04 02:52:52;;;;;;;0.00;0.00;;;;;;;;;;1719416;28;20417;-70
2022/01/04 02:53:43;;;;;;;0.00;0.00;;;;;;;;;;1723787;28;20204;-70
2022/01/04 02:54:36;;;;;;;0.00;0.00;;;;;;;;;;1719622;28;20220;-70
2022/01/04 02:55:27;;;;;;;0.00;0.00;;;;;;;;;;1724683;28;20200;-69
2022/01/04 02:56:19;;;;;;;0.00;0.00;;;;;;;;;;1724535;28;20200;-69
2022/01/04 02:57:10;;;;;;;0.00;0.00;;;;;;;;;;1722681;28;20212;-70
2022/01/04 02:58:02;;;;;;;0.00;0.00;;;;;;;;;;1719485;28;20215;-70
2022/01/04 02:58:56;;;;;;;0.00;0.00;;;;;;;;;;1723049;28;20208;-70
2022/01/04 02:59:48;;;;;;;0.00;0.00;;;;;;;;;;1720130;28;20688;-70
2022/01/04 03:00:39;;;;;;;0.00;0.00;;;;;;;;;;1724514;28;20204;-70
2022/01/04 03:01:31;;;;;;;0.00;0.00;;;;;;;;;;1722005;28;20200;-70
2022/01/04 03:02:23;;;;;;;0.00;0.00;;;;;;;;;;1724795;28;20208;-69
2022/01/04 03:03:15;;;;;;;0.00;0.00;;;;;;;;;;1725328;28;20212;-69
2022/01/04 03:04:07;;;;;;;0.00;0.00;;;;;;;;;;1724461;28;20209;-70
2022/01/04 03:05:00;;;;;;;0.00;0.00;;;;;;;;;;1725245;28;20204;-70
2022/01/04 03:05:51;;;;;;;0.00;0.00;;;;;;;;;;1720640;28;20322;-70
2022/01/04 03:06:44;;;;;;;0.00;0.00;;;;;;;;;;1721816;28;20232;-70
2022/01/04 03:07:36;;;;;;;0.10;0.10;;;;;;;;;;1725536;28;20627;-70
2022/01/04 03:08:28;;;;;;;0.00;0.00;;;;;;;;;;1724389;28;20204;-70
2022/01/04 03:09:19;;;;;;;0.00;0.00;;;;;;;;;;1719772;28;20205;-70
2022/01/04 03:10:11;;;;;;;0.00;0.00;;;;;;;;;;1723144;28;20204;-70
2022/01/04 03:11:02;;;;;;;0.00;0.00;;;;;;;;;;1718408;28;20252;-70
2022/01/04 03:11:55;;;;;;;0.00;0.00;;;;;;;;;;1723372;28;20208;-71
2022/01/04 03:12:46;;;;;;;0.00;0.00;;;;;;;;;;1718453;28;20201;-70
2022/01/04 03:13:38;;;;;;;0.00;0.00;;;;;;;;;;1723738;28;20200;-70
2022/01/04 03:14:29;;;;;;;0.00;0.00;;;;;;;;;;1718284;28;20220;-70
2022/01/04 03:15:22;;;;;;;0.00;0.00;;;;;;;;;;1723835;28;20208;-70
2022/01/04 03:16:13;;;;;;;0.00;0.00;;;;;;;;;;1718623;28;20248;-70
2022/01/04 03:17:06;;;;;;;0.00;0.00;;;;;;;;;;1718175;28;20201;-70
2022/01/04 03:17:57;;;;;;;0.00;0.00;;;;;;;;;;1718685;28;20583;-69
2022/01/04 03:19:03;;;;;;;0.00;0.00;;;;;;;;;;1717779;28;20556;-69
2022/01/04 03:19:54;;;;;;;0.00;0.00;;;;;;;;;;1718361;28;20194;-69
2022/01/04 03:20:46;;;;;;;0.00;0.00;;;;;;;;;;1717273;28;20315;-70
2022/01/04 03:21:38;;;;;;;0.00;0.00;;;;;;;;;;1718440;28;20224;-70
2022/01/04 03:22:32;;;;;;;0.00;0.00;;;;;;;;;;1718986;28;20208;-70
2022/01/04 03:23:23;;;;;;;0.00;0.00;;;;;;;;;;1718321;28;20201;-70
2022/01/04 03:24:16;;;;;;;0.00;0.00;;;;;;;;;;1718603;28;20743;-70
2022/01/04 03:25:11;;;;;;;0.00;0.00;;;;;;;;;;1718278;28;20204;-70
2022/01/04 03:26:03;;;;;;;0.00;0.00;;;;;;;;;;1718190;28;20232;-69
2022/01/04 03:26:54;;;;;;;0.00;0.00;;;;;;;;;;1717510;28;20228;-69
2022/01/04 03:27:46;;;;;;;0.00;0.00;;;;;;;;;;1718662;28;20286;-69
2022/01/04 03:28:40;;;;;;;0.00;0.00;;;;;;;;;;1718326;28;20530;-69
2022/01/04 03:29:32;;;;;;;0.00;0.00;;;;;;;;;;1718559;28;20263;-69
2022/01/04 03:30:23;;;;;;;0.00;0.00;;;;;;;;;;1717274;28;20268;-70
2022/01/04 03:31:16;;;;;;;0.10;0.10;;;;;;;;;;1718877;28;20545;-70
2022/01/04 03:32:07;;;;;;;0.00;0.00;;;;;;;;;;1718556;28;20225;-70
2022/01/04 03:33:00;;;;;;;0.00;0.00;;;;;;;;;;1718097;28;20204;-70
2022/01/04 03:33:51;;;;;;;0.00;0.00;;;;;;;;;;1716937;28;20213;-70
2022/01/04 03:34:43;;;;;;;0.00;0.00;;;;;;;;;;1718638;28;20197;-70
2022/01/04 03:35:34;;;;;;;0.00;0.00;;;;;;;;;;1717754;28;20201;-70
2022/01/04 03:36:26;;;;;;;0.00;0.00;;;;;;;;;;1718429;28;20211;-70
2022/01/04 03:37:18;;;;;;;0.00;0.00;;;;;;;;;;1718665;28;20201;-70
2022/01/04 03:38:11;;;;;;;0.00;0.00;;;;;;;;;;1718223;28;20208;-70
2022/01/04 03:39:04;;;;;;;0.00;0.00;;;;;;;;;;1718012;28;20252;-70
2022/01/04 03:39:56;;;;;;;0.00;0.00;;;;;;;;;;1717619;28;20710;-70
2022/01/04 03:40:48;;;;;;;0.00;0.00;;;;;;;;;;1717800;28;20260;-69
2022/01/04 03:41:41;;;;;;;0.00;0.00;;;;;;;;;;1718054;28;20205;-69
2022/01/04 03:42:32;;;;;;;0.00;0.00;;;;;;;;;;1718846;28;20613;-70
2022/01/04 03:43:24;;;;;;;0.00;0.00;;;;;;;;;;1718126;28;20201;-69
2022/01/04 03:44:19;;;;;;;0.00;0.00;;;;;;;;;;1718669;28;20266;-69
2022/01/04 03:45:10;;;;;;;0.00;0.00;;;;;;;;;;1718015;28;20232;-69
2022/01/04 03:46:03;;;;;;;0.00;0.00;;;;;;;;;;1717604;28;20232;-70
2022/01/04 03:46:55;;;;;;;0.00;0.00;;;;;;;;;;1718044;28;20271;-70
2022/01/04 03:47:47;;;;;;;0.00;0.00;;;;;;;;;;1712178;28;20285;-70
2022/01/04 03:48:38;;;;;;;0.00;0.00;;;;;;;;;;1716957;28;20306;-70
2022/01/04 03:49:31;;;;;;;0.00;0.00;;;;;;;;;;1718967;28;20209;-70
2022/01/04 03:50:22;;;;;;;0.00;0.00;;;;;;;;;;1717998;28;20675;-70
2022/01/04 03:51:14;;;;;;;0.00;0.00;;;;;;;;;;1717853;28;20264;-69
2022/01/04 03:52:06;;;;;;;0.00;0.00;;;;;;;;;;1717232;28;20209;-69
2022/01/04 03:52:57;;;;;;;0.00;0.00;;;;;;;;;;1718895;28;20239;-69
2022/01/04 03:53:51;;;;;;;0.00;0.00;;;;;;;;;;1718356;28;20283;-69
2022/01/04 03:54:42;;;;;;;0.00;0.00;;;;;;;;;;1712905;28;20202;-69
2022/01/04 03:55:34;;;;;;;0.00;0.00;;;;;;;;;;1717874;28;20288;-70
2022/01/04 03:56:27;;;;;;;0.00;0.00;;;;;;;;;;1718469;28;20462;-70
2022/01/04 03:57:18;;;;;;;0.00;0.00;;;;;;;;;;1718081;28;20212;-70
2022/01/04 03:58:10;;;;;;;0.00;0.00;;;;;;;;;;1717207;28;20627;-70
2022/01/04 03:59:01;;;;;;;0.00;0.00;;;;;;;;;;1718552;28;20501;-70
2022/01/04 03:59:53;;;;;;;0.00;0.00;;;;;;;;;;1717974;28;20271;-70
2022/01/04 04:00:44;;;;;;;0.03;0.03;;;;;;;;;;1716852;28;20582;-70
2022/01/04 04:01:37;;;;;;;0.00;0.00;;;;;;;;;;1716176;28;20673;-70
2022/01/04 04:02:28;;;;;;;0.00;0.00;;;;;;;;;;1718771;28;20201;-70
2022/01/04 04:03:20;;;;;;;0.00;0.00;;;;;;;;;;1717910;28;20621;-70
2022/01/04 04:04:11;;;;;;;0.00;0.00;;;;;;;;;;1717883;28;20279;-70
2022/01/04 04:05:07;;;;;;;0.00;0.00;;;;;;;;;;1718130;28;20279;-70
2022/01/04 04:06:00;;;;;;;0.00;0.00;;;;;;;;;;1718111;28;20320;-69
2022/01/04 04:06:52;;;;;;;0.00;0.00;;;;;;;;;;1717989;28;20216;-69
2022/01/04 04:07:43;;;;;;;0.00;0.00;;;;;;;;;;1718660;28;20618;-70
2022/01/04 04:08:36;;;;;;;0.00;0.00;;;;;;;;;;1717970;28;20201;-68
2022/01/04 04:09:30;;;;;;;0.00;0.00;;;;;;;;;;1711625;28;20279;-69
2022/01/04 04:10:22;;;;;;;0.00;0.00;;;;;;;;;;1716558;28;20432;-69
2022/01/04 04:11:14;;;;;;;0.00;0.00;;;;;;;;;;1725097;28;20212;-69
2022/01/04 04:12:06;;;;;;;0.00;0.00;;;;;;;;;;1724791;28;20645;-68
2022/01/04 04:12:58;;;;;;;0.05;0.05;;;;;;;;;;1725292;28;20209;-68
2022/01/04 04:13:50;;;;;;;0.00;0.00;;;;;;;;;;1725123;28;20208;-69
2022/01/04 04:14:41;;;;;;;0.00;0.00;;;;;;;;;;1724704;28;20230;-68
2022/01/04 04:15:33;;;;;;;0.00;0.00;;;;;;;;;;1723777;28;20196;-70
2022/01/04 04:16:24;;;;;;;0.00;0.00;;;;;;;;;;1724063;28;20208;-70
2022/01/04 04:17:17;;;;;;;0.00;0.00;;;;;;;;;;1724662;28;20208;-70
2022/01/04 04:18:09;;;;;;;0.00;0.00;;;;;;;;;;1724983;28;20258;-70
2022/01/04 04:19:01;;;;;;;0.00;0.00;;;;;;;;;;1725082;28;20258;-70
2022/01/04 04:19:52;;;;;;;0.00;0.00;;;;;;;;;;1724290;28;20204;-70
2022/01/04 04:20:45;;;;;;;0.00;0.00;;;;;;;;;;1721697;28;20228;-70
2022/01/04 04:21:36;;;;;;;0.00;0.00;;;;;;;;;;1718091;28;20216;-70
2022/01/04 04:22:28;;;;;;;0.00;0.00;;;;;;;;;;1722621;28;20561;-70
2022/01/04 04:23:20;;;;;;;0.00;0.00;;;;;;;;;;1721855;28;20209;-70
2022/01/04 04:24:12;;;;;;;0.00;0.00;;;;;;;;;;1723393;28;20224;-70
2022/01/04 04:25:05;;;;;;;0.00;0.00;;;;;;;;;;1721128;28;20219;-70
2022/01/04 04:25:57;;;;;;;0.00;0.00;;;;;;;;;;1718355;28;20298;-69
2022/01/04 04:26:48;;;;;;;0.00;0.00;;;;;;;;;;1718048;28;20620;-70
2022/01/04 04:27:41;;;;;;;0.00;0.00;;;;;;;;;;1718440;28;20528;-69
2022/01/04 04:28:32;;;;;;;0.00;0.00;;;;;;;;;;1717541;28;20220;-69
2022/01/04 04:29:24;;;;;;;0.00;0.00;;;;;;;;;;1718054;28;20628;-69
2022/01/04 04:30:15;;;;;;;0.00;0.00;;;;;;;;;;1717937;28;20200;-69
2022/01/04 04:31:07;;;;;;;0.00;0.00;;;;;;;;;;1717518;28;20228;-70
2022/01/04 04:31:59;;;;;;;0.00;0.00;;;;;;;;;;1723452;28;20599;-70
2022/01/04 04:32:51;;;;;;;0.00;0.00;;;;;;;;;;1726325;28;20312;-70
2022/01/04 04:33:42;;;;;;;0.00;0.00;;;;;;;;;;1724955;28;20578;-70
2022/01/04 04:34:34;;;;;;;0.00;0.00;;;;;;;;;;1726416;28;20204;-70
2022/01/04 04:35:25;;;;;;;0.00;0.00;;;;;;;;;;1725171;28;20602;-70
2022/01/04 04:36:18;;;;;;;0.00;0.00;;;;;;;;;;1726591;28;20239;-70
2022/01/04 04:37:09;;;;;;;0.00;0.00;;;;;;;;;;1725721;28;20208;-70
2022/01/04 04:38:02;;;;;;;0.00;0.00;;;;;;;;;;1726144;28;20204;-70
2022/01/04 04:38:53;;;;;;;0.00;0.00;;;;;;;;;;1725555;28;20223;-70
2022/01/04 04:39:45;;;;;;;0.00;0.00;;;;;;;;;;1726087;28;20297;-70
2022/01/04 04:40:38;;;;;;;0.00;0.00;;;;;;;;;;1725577;28;20223;-70
2022/01/04 04:41:30;;;;;;;0.00;0.00;;;;;;;;;;1725586;28;20208;-70
2022/01/04 04:42:22;;;;;;;0.00;0.00;;;;;;;;;;1726293;28;20204;-70
2022/01/04 04:43:14;;;;;;;0.00;0.00;;;;;;;;;;1726142;28;20208;-70
2022/01/04 04:44:05;;;;;;;0.00;0.00;;;;;;;;;;1726500;28;20208;-70
2022/01/04 04:44:58;;;;;;;0.00;0.00;;;;;;;;;;1725972;28;20219;-70
2022/01/04 04:45:49;;;;;;;0.00;0.00;;;;;;;;;;1726215;28;20239;-69
2022/01/04 04:46:41;;;;;;;0.00;0.00;;;;;;;;;;1725865;28;20319;-69
2022/01/04 04:47:32;;;;;;;0.00;0.00;;;;;;;;;;1725652;28;20243;-69
2022/01/04 04:48:25;;;;;;;0.00;0.00;;;;;;;;;;1724900;28;20207;-69
2022/01/04 04:49:16;;;;;;;0.00;0.00;;;;;;;;;;1726644;28;20296;-69
2022/01/04 04:50:09;;;;;;;0.00;0.00;;;;;;;;;;1725563;28;20258;-69
2022/01/04 04:51:01;;;;;;;0.00;0.00;;;;;;;;;;1725701;28;20235;-70
2022/01/04 04:51:54;;;;;;;0.00;0.00;;;;;;;;;;1725942;28;20239;-70
2022/01/04 04:52:45;;;;;;;0.00;0.00;;;;;;;;;;1726548;28;20303;-70
2022/01/04 04:53:38;;;;;;;0.00;0.00;;;;;;;;;;1725091;28;20247;-70
2022/01/04 04:54:29;;;;;;;0.00;0.00;;;;;;;;;;1726450;28;20262;-70
2022/01/04 04:55:21;;;;;;;0.00;0.00;;;;;;;;;;1725901;28;20204;-70
2022/01/04 04:56:14;;;;;;;0.00;0.00;;;;;;;;;;1726407;28;20633;-70
2022/01/04 04:57:06;;;;;;;0.00;0.00;;;;;;;;;;1725747;28;20527;-70
2022/01/04 04:57:58;;;;;;;0.00;0.00;;;;;;;;;;1726522;28;20266;-70
2022/01/04 04:58:50;;;;;;;0.00;0.00;;;;;;;;;;1725876;28;20423;-70
2022/01/04 04:59:41;;;;;;;0.00;0.00;;;;;;;;;;1725216;28;20872;-70
2022/01/04 05:00:33;;;;;;;0.00;0.00;;;;;;;;;;1724880;28;20646;-70
2022/01/04 05:01:24;;;;;;;0.00;0.00;;;;;;;;;;1723584;28;20207;-70
2022/01/04 05:02:17;;;;;;;0.00;0.00;;;;;;;;;;1726336;28;20208;-70
2022/01/04 05:03:08;;;;;;;0.00;0.00;;;;;;;;;;1726041;28;20517;-70
2022/01/04 05:04:00;;;;;;;0.00;0.00;;;;;;;;;;1726212;28;20258;-70
2022/01/04 05:04:51;;;;;;;0.00;0.00;;;;;;;;;;1725750;28;20673;-70
2022/01/04 05:05:43;;;;;;;0.00;0.00;;;;;;;;;;1725542;28;20240;-70
2022/01/04 05:06:34;;;;;;;0.00;0.00;;;;;;;;;;1726403;28;20229;-70
2022/01/04 05:07:27;;;;;;;0.00;0.00;;;;;;;;;;1726376;28;20666;-70
2022/01/04 05:08:18;;;;;;;0.00;0.00;;;;;;;;;;1725904;28;20212;-70
2022/01/04 05:09:10;;;;;;;0.00;0.00;;;;;;;;;;1726289;28;20721;-70
2022/01/04 05:10:03;;;;;;;0.00;0.00;;;;;;;;;;1725715;28;20232;-70
2022/01/04 05:10:54;;;;;;;0.00;0.00;;;;;;;;;;1725883;28;20231;-70
2022/01/04 05:11:47;;;;;;;0.00;0.00;;;;;;;;;;1725460;28;20235;-69
2022/01/04 05:12:39;;;;;;;0.00;0.00;;;;;;;;;;1726420;28;20522;-69
2022/01/04 05:13:31;;;;;;;0.00;0.00;;;;;;;;;;1725906;28;20266;-69
2022/01/04 05:14:22;;;;;;;0.00;0.00;;;;;;;;;;1726651;28;20201;-69